sensor_id;sensor_type;location;lat;lon;timestamp;pressure;altitude;pressure_sealevel;temperature;humidity
46476;BME280;53376;51.114;14.738;2022-11-15T00:11:05;98466.03;;;10.60;63.06
46476;BME280;53376;51.114;14.738;2022-11-15T00:13:58;98468.72;;;10.60;63.00
46476;BME280;53376;51.114;14.738;2022-11-15T00:16:56;98470.59;;;10.58;63.14
46476;BME280;53376;51.114;14.738;2022-11-15T00:19:48;98472.50;;;10.56;62.77
46476;BME280;53376;51.114;14.738;2022-11-15T00:22:46;98459.28;;;10.54;63.09
46476;BME280;53376;51.114;14.738;2022-11-15T00:35:59;98448.50;;;10.57;63.18
46476;BME280;53376;51.114;14.738;2022-11-15T00:38:58;98444.13;;;10.56;63.12
46476;BME280;53376;51.114;14.738;2022-11-15T00:41:57;98446.78;;;10.56;63.13
46476;BME280;53376;51.114;14.738;2022-11-15T00:44:50;98445.94;;;10.56;63.23
46476;BME280;53376;51.114;14.738;2022-11-15T00:47:48;98438.91;;;10.55;63.34
46476;BME280;53376;51.114;14.738;2022-11-15T01:04:36;98438.38;;;10.48;63.47
46476;BME280;53376;51.114;14.738;2022-11-15T01:07:35;98439.38;;;10.47;63.68
46476;BME280;53376;51.114;14.738;2022-11-15T01:10:27;98435.72;;;10.48;63.72
46476;BME280;53376;51.114;14.738;2022-11-15T01:13:29;98436.59;;;10.48;63.55
46476;BME280;53376;51.114;14.738;2022-11-15T01:16:22;98445.41;;;10.49;63.56
46476;BME280;53376;51.114;14.738;2022-11-15T01:29:54;98425.78;;;10.37;63.45
46476;BME280;53376;51.114;14.738;2022-11-15T01:32:52;98426.00;;;10.32;63.63
46476;BME280;53376;51.114;14.738;2022-11-15T01:35:45;98413.00;;;10.28;63.72
46476;BME280;53376;51.114;14.738;2022-11-15T01:38:43;98421.16;;;10.25;63.76
46476;BME280;53376;51.114;14.738;2022-11-15T01:41:35;98417.72;;;10.23;63.84
46476;BME280;53376;51.114;14.738;2022-11-15T01:55:13;98418.94;;;10.17;63.84
46476;BME280;53376;51.114;14.738;2022-11-15T01:58:14;98412.78;;;10.16;63.88
46476;BME280;53376;51.114;14.738;2022-11-15T02:01:05;98402.16;;;10.16;63.74
46476;BME280;53376;51.114;14.738;2022-11-15T02:04:11;98402.16;;;10.16;63.66
46476;BME280;53376;51.114;14.738;2022-11-15T02:07:07;98411.06;;;10.15;63.64
46476;BME280;53376;51.114;14.738;2022-11-15T02:24:30;98373.19;;;10.12;64.28
46476;BME280;53376;51.114;14.738;2022-11-15T02:31:23;98374.25;;;10.09;64.27
46476;BME280;53376;51.114;14.738;2022-11-15T02:34:27;98385.06;;;10.06;64.30
46476;BME280;53376;51.114;14.738;2022-11-15T02:37:34;98394.13;;;10.02;64.19
46476;BME280;53376;51.114;14.738;2022-11-15T02:50:45;98367.06;;;10.11;64.30
46476;BME280;53376;51.114;14.738;2022-11-15T02:53:43;98349.41;;;10.10;64.28
46476;BME280;53376;51.114;14.738;2022-11-15T02:56:45;98344.09;;;10.10;64.36
46476;BME280;53376;51.114;14.738;2022-11-15T02:59:57;98338.00;;;10.08;64.27
46476;BME280;53376;51.114;14.738;2022-11-15T03:03:17;98326.66;;;10.06;64.28
46476;BME280;53376;51.114;14.738;2022-11-15T03:16:53;98333.63;;;9.93;64.69
46476;BME280;53376;51.114;14.738;2022-11-15T03:20:02;98332.75;;;9.92;64.53
46476;BME280;53376;51.114;14.738;2022-11-15T03:23:06;98331.91;;;9.92;64.60
46476;BME280;53376;51.114;14.738;2022-11-15T03:26:00;98328.41;;;9.91;64.66
46476;BME280;53376;51.114;14.738;2022-11-15T03:43:04;98316.91;;;9.91;64.63
46476;BME280;53376;51.114;14.738;2022-11-15T03:46:10;98321.56;;;9.87;64.56
46476;BME280;53376;51.114;14.738;2022-11-15T03:49:17;98319.00;;;9.86;64.60
46476;BME280;53376;51.114;14.738;2022-11-15T03:52:13;98319.84;;;9.86;64.44
46476;BME280;53376;51.114;14.738;2022-11-15T03:55:18;98308.28;;;9.87;64.42
46476;BME280;53376;51.114;14.738;2022-11-15T03:58:12;98297.56;;;9.89;64.20
46476;BME280;53376;51.114;14.738;2022-11-15T04:11:53;98311.81;;;9.88;63.88
46476;BME280;53376;51.114;14.738;2022-11-15T04:14:53;98312.84;;;9.85;64.04
46476;BME280;53376;51.114;14.738;2022-11-15T04:17:47;98310.25;;;9.83;64.06
46476;BME280;53376;51.114;14.738;2022-11-15T04:20:47;98307.59;;;9.83;64.01
46476;BME280;53376;51.114;14.738;2022-11-15T04:23:40;98308.38;;;9.86;63.98
46476;BME280;53376;51.114;14.738;2022-11-15T04:37:10;98285.81;;;9.78;64.11
46476;BME280;53376;51.114;14.738;2022-11-15T04:40:10;98297.47;;;9.76;64.18
46476;BME280;53376;51.114;14.738;2022-11-15T04:43:03;98294.03;;;9.74;64.51
46476;BME280;53376;51.114;14.738;2022-11-15T04:46:01;98301.25;;;9.72;64.58
46476;BME280;53376;51.114;14.738;2022-11-15T04:48:54;98294.31;;;9.69;64.72
46476;BME280;53376;51.114;14.738;2022-11-15T04:51:52;98295.34;;;9.66;64.81
46476;BME280;53376;51.114;14.738;2022-11-15T05:05:19;98290.13;;;9.65;64.92
46476;BME280;53376;51.114;14.738;2022-11-15T05:08:11;98295.41;;;9.65;64.85
46476;BME280;53376;51.114;14.738;2022-11-15T05:11:09;98295.41;;;9.65;64.92
46476;BME280;53376;51.114;14.738;2022-11-15T05:14:01;98289.38;;;9.63;64.76
46476;BME280;53376;51.114;14.738;2022-11-15T05:17:00;98295.63;;;9.62;64.80
46476;BME280;53376;51.114;14.738;2022-11-15T05:30:08;98292.19;;;9.60;64.90
46476;BME280;53376;51.114;14.738;2022-11-15T05:33:07;98286.88;;;9.60;64.95
46476;BME280;53376;51.114;14.738;2022-11-15T05:36:13;98286.09;;;9.58;65.02
46476;BME280;53376;51.114;14.738;2022-11-15T05:39:14;98276.47;;;9.57;65.10
46476;BME280;53376;51.114;14.738;2022-11-15T05:42:19;98280.06;;;9.56;65.22
46476;BME280;53376;51.114;14.738;2022-11-15T05:55:53;98268.94;;;9.49;65.39
46476;BME280;53376;51.114;14.738;2022-11-15T05:58:53;98273.41;;;9.48;65.42
46476;BME280;53376;51.114;14.738;2022-11-15T06:01:53;98270.75;;;9.48;65.31
46476;BME280;53376;51.114;14.738;2022-11-15T06:04:45;98276.06;;;9.48;65.32
46476;BME280;53376;51.114;14.738;2022-11-15T06:07:44;98279.47;;;9.50;65.33
46476;BME280;53376;51.114;14.738;2022-11-15T06:10:35;98279.53;;;9.49;65.28
46476;BME280;53376;51.114;14.738;2022-11-15T06:13:35;98268.88;;;9.50;65.36
46476;BME280;53376;51.114;14.738;2022-11-15T06:23:17;98273.41;;;9.48;65.37
46476;BME280;53376;51.114;14.738;2022-11-15T06:26:17;98277.88;;;9.48;65.32
46476;BME280;53376;51.114;14.738;2022-11-15T06:29:11;98278.69;;;9.48;65.28
46476;BME280;53376;51.114;14.738;2022-11-15T06:32:10;98284.00;;;9.48;65.23
46476;BME280;53376;51.114;14.738;2022-11-15T06:35:02;98269.97;;;9.46;65.29
46476;BME280;53376;51.114;14.738;2022-11-15T06:38:03;98286.75;;;9.47;65.33
46476;BME280;53376;51.114;14.738;2022-11-15T06:51:11;98286.47;;;9.51;65.40
46476;BME280;53376;51.114;14.738;2022-11-15T06:54:10;98293.59;;;9.51;65.42
46476;BME280;53376;51.114;14.738;2022-11-15T06:57:13;98290.09;;;9.50;65.45
46476;BME280;53376;51.114;14.738;2022-11-15T07:00:07;98296.25;;;9.51;65.39
46476;BME280;53376;51.114;14.738;2022-11-15T07:03:06;98294.41;;;9.51;65.43
46476;BME280;53376;51.114;14.738;2022-11-15T07:16:15;98293.47;;;9.52;65.27
46476;BME280;53376;51.114;14.738;2022-11-15T07:19:13;98301.44;;;9.52;65.19
46476;BME280;53376;51.114;14.738;2022-11-15T07:22:11;98298.78;;;9.52;65.37
46476;BME280;53376;51.114;14.738;2022-11-15T07:25:04;98306.75;;;9.52;65.41
46476;BME280;53376;51.114;14.738;2022-11-15T07:28:03;98295.41;;;9.50;65.30
46476;BME280;53376;51.114;14.738;2022-11-15T07:30:55;98298.78;;;9.52;65.46
46476;BME280;53376;51.114;14.738;2022-11-15T07:33:56;98293.47;;;9.52;65.37
46476;BME280;53376;51.114;14.738;2022-11-15T07:43:26;98302.22;;;9.55;65.55
46476;BME280;53376;51.114;14.738;2022-11-15T07:46:24;98289.06;;;9.53;65.53
46476;BME280;53376;51.114;14.738;2022-11-15T07:49:18;98289.06;;;9.53;65.57
46476;BME280;53376;51.114;14.738;2022-11-15T07:52:16;98288.84;;;9.56;65.71
46476;BME280;53376;51.114;14.738;2022-11-15T07:55:09;98285.16;;;9.59;65.55
46476;BME280;53376;51.114;14.738;2022-11-15T07:58:10;98283.47;;;9.58;65.58
46476;BME280;53376;51.114;14.738;2022-11-15T08:11:18;98291.00;;;9.65;65.60
46476;BME280;53376;51.114;14.738;2022-11-15T08:14:18;98292.72;;;9.66;65.74
46476;BME280;53376;51.114;14.738;2022-11-15T08:17:16;98283.78;;;9.67;65.71
46476;BME280;53376;51.114;14.738;2022-11-15T08:20:10;98280.19;;;9.68;65.67
46476;BME280;53376;51.114;14.738;2022-11-15T08:23:11;98272.13;;;9.70;65.54
46476;BME280;53376;51.114;14.738;2022-11-15T08:36:26;98265.59;;;9.76;65.79
46476;BME280;53376;51.114;14.738;2022-11-15T08:39:36;98253.13;;;9.78;65.78
46476;BME280;53376;51.114;14.738;2022-11-15T08:42:35;98247.72;;;9.79;65.72
46476;BME280;53376;51.114;14.738;2022-11-15T08:45:28;98252.06;;;9.80;65.76
46476;BME280;53376;51.114;14.738;2022-11-15T08:48:26;98246.66;;;9.82;65.93
46476;BME280;53376;51.114;14.738;2022-11-15T08:51:18;98243.84;;;9.85;65.92
46476;BME280;53376;51.114;14.738;2022-11-15T09:04:48;98247.53;;;9.97;66.10
46476;BME280;53376;51.114;14.738;2022-11-15T09:07:47;98241.09;;;10.01;66.00
46476;BME280;53376;51.114;14.738;2022-11-15T09:10:44;98243.56;;;10.04;66.03
46476;BME280;53376;51.114;14.738;2022-11-15T09:13:42;98239.03;;;10.06;66.03
46476;BME280;53376;51.114;14.738;2022-11-15T09:16:34;98243.19;;;10.10;66.12
46476;BME280;53376;51.114;14.738;2022-11-15T09:30:06;98242.22;;;10.26;66.29
46476;BME280;53376;51.114;14.738;2022-11-15T09:33:08;98242.06;;;10.29;66.13
46476;BME280;53376;51.114;14.738;2022-11-15T09:36:03;98234.84;;;10.31;66.07
46476;BME280;53376;51.114;14.738;2022-11-15T09:39:03;98243.41;;;10.36;66.02
46476;BME280;53376;51.114;14.738;2022-11-15T09:42:08;98237.06;;;10.39;66.04
46476;BME280;53376;51.114;14.738;2022-11-15T09:59:43;98230.19;;;10.63;65.82
46476;BME280;53376;51.114;14.738;2022-11-15T10:02:46;98223.72;;;10.68;65.84
46476;BME280;53376;51.114;14.738;2022-11-15T10:05:38;98224.28;;;10.73;65.90
46476;BME280;53376;51.114;14.738;2022-11-15T10:08:30;98211.56;;;10.78;65.86
46476;BME280;53376;51.114;14.738;2022-11-15T10:11:18;98210.31;;;10.84;65.96
46476;BME280;53376;51.114;14.738;2022-11-15T10:24:34;98195.53;;;11.20;65.07
46476;BME280;53376;51.114;14.738;2022-11-15T10:27:17;98194.00;;;11.30;64.93
46476;BME280;53376;51.114;14.738;2022-11-15T10:29:58;98188.81;;;11.41;64.71
46476;BME280;53376;51.114;14.738;2022-11-15T10:32:34;98173.91;;;11.52;64.51
46476;BME280;53376;51.114;14.738;2022-11-15T10:35:19;98179.34;;;11.63;64.08
46476;BME280;53376;51.114;14.738;2022-11-15T10:38:05;98170.75;;;11.72;63.66
46476;BME280;53376;51.114;14.738;2022-11-15T10:51:24;98161.16;;;12.21;62.65
46476;BME280;53376;51.114;14.738;2022-11-15T10:54:10;98151.75;;;12.29;62.51
46476;BME280;53376;51.114;14.738;2022-11-15T10:56:54;98156.31;;;12.39;62.37
46476;BME280;53376;51.114;14.738;2022-11-15T10:59:38;98148.63;;;12.48;62.01
46476;BME280;53376;51.114;14.738;2022-11-15T11:02:30;98144.56;;;12.55;61.78
46476;BME280;53376;51.114;14.738;2022-11-15T11:19:23;98138.13;;;13.06;60.92
46476;BME280;53376;51.114;14.738;2022-11-15T11:22:25;98123.25;;;13.15;60.60
46476;BME280;53376;51.114;14.738;2022-11-15T11:25:23;98128.00;;;13.22;60.35
46476;BME280;53376;51.114;14.738;2022-11-15T11:28:23;98124.03;;;13.28;60.16
46476;BME280;53376;51.114;14.738;2022-11-15T11:31:23;98118.00;;;13.37;60.05
46476;BME280;53376;51.114;14.738;2022-11-15T11:44:33;98103.84;;;13.60;59.57
46476;BME280;53376;51.114;14.738;2022-11-15T11:47:23;98103.75;;;13.61;59.18
46476;BME280;53376;51.114;14.738;2022-11-15T11:50:13;98103.28;;;13.67;59.47
46476;BME280;53376;51.114;14.738;2022-11-15T11:52:57;98096.72;;;13.72;59.40
46476;BME280;53376;51.114;14.738;2022-11-15T11:55:44;98099.13;;;13.75;59.17
46476;BME280;53376;51.114;14.738;2022-11-15T11:58:24;98090.16;;;13.76;59.30
46476;BME280;53376;51.114;14.738;2022-11-15T12:11:50;98078.03;;;13.72;58.76
46476;BME280;53376;51.114;14.738;2022-11-15T12:14:51;98071.22;;;13.67;58.59
46476;BME280;53376;51.114;14.738;2022-11-15T12:17:30;98071.47;;;13.64;58.60
46476;BME280;53376;51.114;14.738;2022-11-15T12:20:16;98061.03;;;13.61;58.79
46476;BME280;53376;51.114;14.738;2022-11-15T12:22:55;98061.25;;;13.58;58.84
46476;BME280;53376;51.114;14.738;2022-11-15T12:49:51;98032.06;;;13.32;58.48
46476;BME280;53376;51.114;14.738;2022-11-15T12:52:32;98028.69;;;13.30;58.57
46476;BME280;53376;51.114;14.738;2022-11-15T13:08:49;98023.09;;;13.22;58.54
46476;BME280;53376;51.114;14.738;2022-11-15T13:11:44;98013.16;;;13.24;58.47
46476;BME280;53376;51.114;14.738;2022-11-15T13:14:43;98001.50;;;13.25;58.43
46476;BME280;53376;51.114;14.738;2022-11-15T13:17:35;98002.50;;;13.24;58.56
46476;BME280;53376;51.114;14.738;2022-11-15T13:30:48;97994.84;;;13.31;58.16
46476;BME280;53376;51.114;14.738;2022-11-15T13:33:32;97997.38;;;13.32;57.97
46476;BME280;53376;51.114;14.738;2022-11-15T13:36:18;97991.34;;;13.30;57.93
46476;BME280;53376;51.114;14.738;2022-11-15T13:38:59;97986.97;;;13.29;57.78
46476;BME280;53376;51.114;14.738;2022-11-15T13:41:48;97986.97;;;13.29;57.63
46476;BME280;53376;51.114;14.738;2022-11-15T13:44:25;97985.50;;;13.25;57.37
46476;BME280;53376;51.114;14.738;2022-11-15T13:57:42;97994.38;;;13.26;56.91
46476;BME280;53376;51.114;14.738;2022-11-15T14:00:32;97996.41;;;13.22;56.54
46476;BME280;53376;51.114;14.738;2022-11-15T14:03:16;97986.94;;;13.18;56.60
46476;BME280;53376;51.114;14.738;2022-11-15T14:06:05;97988.16;;;13.14;56.64
46476;BME280;53376;51.114;14.738;2022-11-15T14:08:41;97986.84;;;13.19;56.67
46476;BME280;53376;51.114;14.738;2022-11-15T14:11:22;97977.38;;;13.27;56.23
46476;BME280;53376;51.114;14.738;2022-11-15T14:14:12;97969.50;;;13.36;56.29
46476;BME280;53376;51.114;14.738;2022-11-15T14:24:20;97959.81;;;13.58;55.25
46476;BME280;53376;51.114;14.738;2022-11-15T14:27:20;97962.13;;;13.63;54.91
46476;BME280;53376;51.114;14.738;2022-11-15T14:30:04;97962.09;;;13.74;54.62
46476;BME280;53376;51.114;14.738;2022-11-15T14:32:44;97965.88;;;13.72;54.38
46476;BME280;53376;51.114;14.738;2022-11-15T14:35:25;97977.28;;;13.62;54.55
46476;BME280;53376;51.114;14.738;2022-11-15T14:37:51;97976.31;;;13.63;54.43
46476;BME280;53376;51.114;14.738;2022-11-15T14:51:11;97952.50;;;13.26;54.83
46476;BME280;53376;51.114;14.738;2022-11-15T14:53:52;97943.16;;;13.09;55.48
46476;BME280;53376;51.114;14.738;2022-11-15T14:56:18;97946.16;;;12.93;55.75
46476;BME280;53376;51.114;14.738;2022-11-15T14:58:52;97939.25;;;12.79;56.33
46476;BME280;53376;51.114;14.738;2022-11-15T15:01:32;97940.31;;;12.65;56.49
46476;BME280;53376;51.114;14.738;2022-11-15T15:03:58;97935.91;;;12.53;56.83
46476;BME280;53376;51.114;14.738;2022-11-15T15:20:29;97934.91;;;11.94;58.14
46476;BME280;53376;51.114;14.738;2022-11-15T15:22:56;97935.34;;;11.88;58.35
46476;BME280;53376;51.114;14.738;2022-11-15T15:25:36;97932.19;;;11.83;58.43
46476;BME280;53376;51.114;14.738;2022-11-15T15:28:03;97934.34;;;11.77;58.45
46476;BME280;53376;51.114;14.738;2022-11-15T15:30:43;97928.38;;;11.74;58.67
46476;BME280;53376;51.114;14.738;2022-11-15T15:33:11;97922.66;;;11.67;58.59
46476;BME280;53376;51.114;14.738;2022-11-15T15:46:20;97928.25;;;11.38;59.23
46476;BME280;53376;51.114;14.738;2022-11-15T15:49:03;97939.88;;;11.37;59.23
46476;BME280;53376;51.114;14.738;2022-11-15T15:51:29;97939.13;;;11.35;59.32
46476;BME280;53376;51.114;14.738;2022-11-15T15:54:09;97925.19;;;11.32;59.17
46476;BME280;53376;51.114;14.738;2022-11-15T15:56:35;97928.94;;;11.29;59.25
46476;BME280;53376;51.114;14.738;2022-11-15T15:59:16;97918.41;;;11.27;59.44
46476;BME280;53376;51.114;14.738;2022-11-15T16:11:58;97908.72;;;11.13;59.44
46476;BME280;53376;51.114;14.738;2022-11-15T16:14:38;97904.41;;;11.12;59.54
46476;BME280;53376;51.114;14.738;2022-11-15T16:17:22;97907.13;;;11.11;59.43
46476;BME280;53376;51.114;14.738;2022-11-15T16:19:57;97901.19;;;11.07;59.61
46476;BME280;53376;51.114;14.738;2022-11-15T16:22:43;97899.72;;;11.03;59.46
46476;BME280;53376;51.114;14.738;2022-11-15T16:38:58;97887.19;;;10.79;59.77
46476;BME280;53376;51.114;14.738;2022-11-15T16:41:39;97885.59;;;10.77;59.76
46476;BME280;53376;51.114;14.738;2022-11-15T16:44:06;97888.38;;;10.75;60.02
46476;BME280;53376;51.114;14.738;2022-11-15T16:46:46;97883.25;;;10.72;60.04
46476;BME280;53376;51.114;14.738;2022-11-15T16:49:13;97892.19;;;10.71;60.05
46476;BME280;53376;51.114;14.738;2022-11-15T16:51:54;97887.19;;;10.67;60.06
46476;BME280;53376;51.114;14.738;2022-11-15T16:54:22;97889.22;;;10.63;60.02
46476;BME280;53376;51.114;14.738;2022-11-15T17:07:29;97884.84;;;10.49;60.58
46476;BME280;53376;51.114;14.738;2022-11-15T17:10:11;97878.88;;;10.45;60.63
46476;BME280;53376;51.114;14.738;2022-11-15T17:12:38;97880.81;;;10.43;60.86
46476;BME280;53376;51.114;14.738;2022-11-15T17:15:18;97880.06;;;10.41;60.71
46476;BME280;53376;51.114;14.738;2022-11-15T17:17:50;97874.22;;;10.36;60.87
46476;BME280;53376;51.114;14.738;2022-11-15T17:34:15;97860.03;;;10.23;61.59
46476;BME280;53376;51.114;14.738;2022-11-15T17:36:41;97868.94;;;10.22;61.55
46476;BME280;53376;51.114;14.738;2022-11-15T17:39:15;97863.63;;;10.22;61.55
46476;BME280;53376;51.114;14.738;2022-11-15T17:41:55;97875.97;;;10.23;61.64
46476;BME280;53376;51.114;14.738;2022-11-15T17:44:21;97867.47;;;10.18;61.55
46476;BME280;53376;51.114;14.738;2022-11-15T18:00:36;97852.34;;;10.05;61.63
46476;BME280;53376;51.114;14.738;2022-11-15T18:03:17;97855.97;;;10.04;61.56
46476;BME280;53376;51.114;14.738;2022-11-15T18:05:44;97852.53;;;10.02;61.69
46476;BME280;53376;51.114;14.738;2022-11-15T18:08:24;97843.84;;;10.00;61.62
46476;BME280;53376;51.114;14.738;2022-11-15T18:11:01;97845.75;;;9.98;61.64
46476;BME280;53376;51.114;14.738;2022-11-15T18:13:47;97835.13;;;9.98;61.74
46476;BME280;53376;51.114;14.738;2022-11-15T18:26:41;97832.34;;;9.87;61.75
46476;BME280;53376;51.114;14.738;2022-11-15T18:29:22;97835.19;;;9.83;61.86
46476;BME280;53376;51.114;14.738;2022-11-15T18:32:02;97838.06;;;9.80;61.79
46476;BME280;53376;51.114;14.738;2022-11-15T18:34:30;97843.38;;;9.80;62.21
46476;BME280;53376;51.114;14.738;2022-11-15T18:37:10;97854.19;;;9.77;62.06
46476;BME280;53376;51.114;14.738;2022-11-15T18:39:36;97843.56;;;9.77;62.16
46476;BME280;53376;51.114;14.738;2022-11-15T18:52:52;97842.25;;;9.70;62.33
46476;BME280;53376;51.114;14.738;2022-11-15T18:55:33;97836.34;;;9.66;62.51
46476;BME280;53376;51.114;14.738;2022-11-15T18:57:59;97840.00;;;9.64;62.44
46476;BME280;53376;51.114;14.738;2022-11-15T19:00:33;97839.28;;;9.62;62.47
46476;BME280;53376;51.114;14.738;2022-11-15T19:03:13;97834.94;;;9.61;62.58
46476;BME280;53376;51.114;14.738;2022-11-15T19:19:23;97836.63;;;9.62;63.24
46476;BME280;53376;51.114;14.738;2022-11-15T19:22:03;97834.94;;;9.61;63.14
46476;BME280;53376;51.114;14.738;2022-11-15T19:24:31;97830.69;;;9.58;63.31
46476;BME280;53376;51.114;14.738;2022-11-15T19:27:10;97829.81;;;9.58;63.46
46476;BME280;53376;51.114;14.738;2022-11-15T19:29:37;97837.03;;;9.56;63.56
46476;BME280;53376;51.114;14.738;2022-11-15T19:32:11;97840.63;;;9.55;63.75
46476;BME280;53376;51.114;14.738;2022-11-15T19:34:53;97835.13;;;9.58;63.87
46476;BME280;53376;51.114;14.738;2022-11-15T19:47:33;97811.47;;;9.55;64.05
46476;BME280;53376;51.114;14.738;2022-11-15T19:50:16;97808.03;;;9.52;63.96
46476;BME280;53376;51.114;14.738;2022-11-15T19:52:55;97811.56;;;9.53;64.16
46476;BME280;53376;51.114;14.738;2022-11-15T19:55:23;97795.66;;;9.53;64.16
46476;BME280;53376;51.114;14.738;2022-11-15T19:58:03;97792.13;;;9.52;64.11
46476;BME280;53376;51.114;14.738;2022-11-15T20:14:11;97790.09;;;9.43;65.17
46476;BME280;53376;51.114;14.738;2022-11-15T20:16:52;97785.75;;;9.42;65.12
46476;BME280;53376;51.114;14.738;2022-11-15T20:19:20;97781.38;;;9.41;65.09
46476;BME280;53376;51.114;14.738;2022-11-15T20:22:00;97780.44;;;9.42;65.06
46476;BME280;53376;51.114;14.738;2022-11-15T20:24:26;97781.38;;;9.41;65.07
46476;BME280;53376;51.114;14.738;2022-11-15T20:27:00;97779.59;;;9.42;65.39
46476;BME280;53376;51.114;14.738;2022-11-15T20:29:41;97773.44;;;9.41;65.23
46476;BME280;53376;51.114;14.738;2022-11-15T20:39:07;97771.06;;;9.36;65.40
46476;BME280;53376;51.114;14.738;2022-11-15T20:41:48;97768.34;;;9.38;65.55
46476;BME280;53376;51.114;14.738;2022-11-15T20:44:14;97767.56;;;9.36;65.43
46476;BME280;53376;51.114;14.738;2022-11-15T20:46:50;97770.22;;;9.36;65.62
46476;BME280;53376;51.114;14.738;2022-11-15T20:49:30;97764.09;;;9.35;65.56
46476;BME280;53376;51.114;14.738;2022-11-15T20:51:56;97766.81;;;9.34;65.70
46476;BME280;53376;51.114;14.738;2022-11-15T20:54:37;97765.97;;;9.33;65.55
46476;BME280;53376;51.114;14.738;2022-11-15T21:07:19;97744.13;;;9.30;65.67
46476;BME280;53376;51.114;14.738;2022-11-15T21:10:00;97747.53;;;9.32;65.86
46476;BME280;53376;51.114;14.738;2022-11-15T21:12:39;97753.56;;;9.34;65.71
46476;BME280;53376;51.114;14.738;2022-11-15T21:15:07;97761.50;;;9.34;65.62
46476;BME280;53376;51.114;14.738;2022-11-15T21:17:49;97762.38;;;9.34;65.60
46476;BME280;53376;51.114;14.738;2022-11-15T21:20:16;97750.84;;;9.35;65.89
46476;BME280;53376;51.114;14.738;2022-11-15T21:33:12;97738.41;;;9.36;65.70
46476;BME280;53376;51.114;14.738;2022-11-15T21:35:53;97729.69;;;9.34;65.73
46476;BME280;53376;51.114;14.738;2022-11-15T21:38:20;97731.50;;;9.33;65.62
46476;BME280;53376;51.114;14.738;2022-11-15T21:41:02;97726.31;;;9.32;65.77
46476;BME280;53376;51.114;14.738;2022-11-15T21:43:29;97722.91;;;9.30;66.00
46476;BME280;53376;51.114;14.738;2022-11-15T21:46:09;97720.38;;;9.28;65.99
46476;BME280;53376;51.114;14.738;2022-11-15T21:48:37;97715.91;;;9.29;66.15
46476;BME280;53376;51.114;14.738;2022-11-15T22:01:47;97707.19;;;9.27;66.47
46476;BME280;53376;51.114;14.738;2022-11-15T22:04:29;97707.19;;;9.27;66.40
46476;BME280;53376;51.114;14.738;2022-11-15T22:06:56;97707.19;;;9.27;66.57
46476;BME280;53376;51.114;14.738;2022-11-15T22:09:36;97701.88;;;9.27;66.72
46476;BME280;53376;51.114;14.738;2022-11-15T22:12:07;97698.28;;;9.28;66.85
46476;BME280;53376;51.114;14.738;2022-11-15T22:14:48;97698.28;;;9.28;66.50
46476;BME280;53376;51.114;14.738;2022-11-15T22:27:30;97690.31;;;9.28;66.85
46476;BME280;53376;51.114;14.738;2022-11-15T22:30:11;97692.97;;;9.28;66.91
46476;BME280;53376;51.114;14.738;2022-11-15T22:32:52;97698.28;;;9.28;66.90
46476;BME280;53376;51.114;14.738;2022-11-15T22:35:18;97695.56;;;9.29;67.09
46476;BME280;53376;51.114;14.738;2022-11-15T22:37:59;97691.09;;;9.30;66.82
46476;BME280;53376;51.114;14.738;2022-11-15T22:54:07;97671.56;;;9.31;67.19
46476;BME280;53376;51.114;14.738;2022-11-15T22:56:48;97676.00;;;9.30;66.95
46476;BME280;53376;51.114;14.738;2022-11-15T22:59:14;97673.38;;;9.30;66.97
46476;BME280;53376;51.114;14.738;2022-11-15T23:01:55;97676.13;;;9.29;67.06
46476;BME280;53376;51.114;14.738;2022-11-15T23:04:22;97664.56;;;9.30;67.21
46476;BME280;53376;51.114;14.738;2022-11-15T23:07:02;97653.13;;;9.29;67.11
46476;BME280;53376;51.114;14.738;2022-11-15T23:09:31;97653.97;;;9.30;67.05
46476;BME280;53376;51.114;14.738;2022-11-15T23:19:22;97632.75;;;9.30;67.01
46476;BME280;53376;51.114;14.738;2022-11-15T23:22:02;97631.06;;;9.29;67.23
46476;BME280;53376;51.114;14.738;2022-11-15T23:24:45;97631.06;;;9.29;67.08
46476;BME280;53376;51.114;14.738;2022-11-15T23:27:12;97629.25;;;9.29;67.28
46476;BME280;53376;51.114;14.738;2022-11-15T23:29:52;97622.16;;;9.30;67.21
46476;BME280;53376;51.114;14.738;2022-11-15T23:32:19;97620.44;;;9.29;67.17
46476;BME280;53376;51.114;14.738;2022-11-15T23:34:59;97623.97;;;9.29;67.09
46476;BME280;53376;51.114;14.738;2022-11-15T23:47:42;97606.44;;;9.27;66.97
46476;BME280;53376;51.114;14.738;2022-11-15T23:50:23;97604.75;;;9.26;66.94
46476;BME280;53376;51.114;14.738;2022-11-15T23:53:03;97602.09;;;9.26;67.15
46476;BME280;53376;51.114;14.738;2022-11-15T23:55:31;97599.47;;;9.26;66.94
46476;BME280;53376;51.114;14.738;2022-11-15T23:58:12;97599.47;;;9.26;66.86
